Time;durP1;ratioP1;P1;durP2;ratioP2;P2;SDS_P1;SDS_P2;PMS_P1;PMS_P2;Temp;Humidity;BMP_temperature;BMP_pressure;BME280_temperature;BME280_humidity;BME280_pressure;Samples;Min_cycle;Max_cycle;Signal;HPM_P1;HPM_P2
2022/04/23 08:08:07;;;;;;;;;;;12.40;97.50;;;;;;5112836;27;20756;-46
2022/04/23 08:10:34;;;;;;;26.17;17.17;;;12.50;97.50;;;;;;5090488;28;19947;-49
2022/04/23 08:13:01;;;;;;;24.50;17.50;;;12.50;97.10;;;;;;5100250;28;20105;-52
2022/04/23 08:15:30;;;;;;;26.23;17.55;;;12.60;96.80;;;;;;5085180;28;20074;-50
2022/04/23 08:17:57;;;;;;;24.70;18.75;;;12.70;96.60;;;;;;5087753;28;20068;-48
2022/04/23 08:20:23;;;;;;;24.95;17.05;;;12.70;96.60;;;;;;5091250;28;20031;-50
2022/04/23 08:22:50;;;;;;;27.10;16.80;;;12.80;96.60;;;;;;5082587;28;20051;-52
2022/04/23 08:25:17;;;;;;;24.63;15.82;;;13.00;96.50;;;;;;5083133;28;20098;-48
2022/04/23 08:27:43;;;;;;;21.05;16.42;;;13.00;96.00;;;;;;5089821;28;20066;-50
2022/04/23 08:32:56;;;;;;;19.48;16.05;;;13.10;96.10;;;;;;5082481;28;20040;-53
2022/04/23 08:35:23;;;;;;;21.42;16.08;;;13.10;96.00;;;;;;5082887;28;20518;-55
2022/04/23 08:37:50;;;;;;;22.17;17.10;;;13.10;95.80;;;;;;5073926;28;20045;-52
2022/04/23 08:40:16;;;;;;;26.42;16.80;;;13.10;95.70;;;;;;5069506;28;20461;-51
2022/04/23 08:42:43;;;;;;;23.13;16.75;;;13.10;95.80;;;;;;5069792;28;20051;-53
2022/04/23 08:45:12;;;;;;;26.38;16.98;;;13.30;95.30;;;;;;5075822;28;20063;-52
2022/04/23 08:47:38;;;;;;;22.45;17.92;;;13.50;95.30;;;;;;5088580;28;20028;-49
2022/04/23 08:50:05;;;;;;;20.23;17.83;;;13.50;94.50;;;;;;5079503;28;20507;-50
2022/04/23 08:52:32;;;;;;;22.40;18.25;;;13.50;94.70;;;;;;5069003;28;20514;-48
2022/04/23 08:54:59;;;;;;;20.40;18.23;;;13.50;94.50;;;;;;5079335;28;20068;-48
2022/04/23 08:57:26;;;;;;;24.48;18.92;;;13.50;94.40;;;;;;5070511;28;20040;-50
2022/04/23 08:59:53;;;;;;;22.73;18.42;;;13.60;94.60;;;;;;5087376;28;20040;-50
2022/04/23 09:02:20;;;;;;;24.23;18.25;;;13.60;94.40;;;;;;5089121;28;20044;-49
2022/04/23 09:04:47;;;;;;;22.45;18.95;;;13.50;94.30;;;;;;5088440;28;20487;-50
2022/04/23 09:07:14;;;;;;;24.83;18.83;;;13.50;94.50;;;;;;5088921;28;20051;-50
2022/04/23 09:09:40;;;;;;;24.10;18.05;;;13.40;94.30;;;;;;5089057;28;20032;-52
2022/04/23 09:12:07;;;;;;;23.02;19.40;;;13.40;94.40;;;;;;5088181;28;20487;-51
2022/04/23 09:14:34;;;;;;;23.52;18.02;;;13.40;94.50;;;;;;5089225;28;20083;-52
2022/04/23 09:25:17;;;;;;;20.85;18.65;;;13.70;94.10;;;;;;5074699;28;20124;-55
2022/04/23 09:27:44;;;;;;;21.40;18.20;;;13.80;93.70;;;;;;5075274;28;20044;-62
2022/04/23 09:30:11;;;;;;;25.95;18.90;;;13.90;93.80;;;;;;5074422;28;20033;-53
2022/04/23 09:32:38;;;;;;;25.73;18.00;;;13.90;93.40;;;;;;5073931;28;20033;-52
2022/04/23 09:35:04;;;;;;;26.65;19.35;;;14.00;93.40;;;;;;5074627;28;20044;-52
2022/04/23 09:38:11;;;;;;;21.70;17.73;;;14.10;93.50;;;;;;5075037;28;20045;-52
2022/04/23 09:40:18;;;;;;;23.75;17.75;;;14.10;93.60;;;;;;5074381;28;20043;-49
2022/04/23 09:42:45;;;;;;;23.30;18.45;;;14.20;93.20;;;;;;5073631;28;20106;-52
2022/04/23 09:45:12;;;;;;;25.85;18.48;;;14.10;93.20;;;;;;5075203;28;20094;-50
2022/04/23 09:47:42;;;;;;;24.40;19.55;;;14.10;93.30;;;;;;5074446;28;20459;-52
2022/04/23 09:50:09;;;;;;;22.13;19.45;;;14.30;93.00;;;;;;5074826;28;20064;-54
2022/04/23 09:52:36;;;;;;;22.10;19.35;;;14.40;92.80;;;;;;5074584;28;20117;-49
2022/04/23 09:55:23;;;;;;;24.63;19.95;;;14.50;92.70;;;;;;5055694;28;20056;-49
2022/04/23 09:57:49;;;;;;;24.15;19.55;;;14.60;92.60;;;;;;5055143;28;20076;-52
2022/04/23 10:00:16;;;;;;;24.35;18.15;;;14.60;92.50;;;;;;5062953;28;20040;-52
2022/04/23 10:02:43;;;;;;;26.50;20.30;;;14.70;92.70;;;;;;5074436;28;20045;-49
2022/04/23 10:05:11;;;;;;;26.40;19.80;;;14.80;92.10;;;;;;5074231;28;20644;-48
2022/04/23 10:07:38;;;;;;;25.85;18.90;;;14.80;92.20;;;;;;5074438;28;20052;-56
2022/04/23 10:10:05;;;;;;;22.45;19.90;;;14.90;92.10;;;;;;5074452;28;20041;-55
2022/04/23 10:12:32;;;;;;;24.40;19.58;;;15.00;91.40;;;;;;5073780;28;20416;-51
2022/04/23 10:14:59;;;;;;;25.20;19.65;;;15.10;91.20;;;;;;5074352;28;20044;-50
2022/04/23 10:17:26;;;;;;;22.27;19.77;;;15.10;90.90;;;;;;5073619;28;20127;-50
2022/04/23 10:19:52;;;;;;;20.92;18.40;;;15.30;91.30;;;;;;5074526;28;20400;-49
2022/04/23 10:22:21;;;;;;;24.70;19.95;;;15.30;91.10;;;;;;5074232;28;20060;-48
2022/04/23 10:24:48;;;;;;;22.10;19.20;;;15.30;90.60;;;;;;5073506;28;20125;-48
2022/04/23 10:27:14;;;;;;;22.52;19.55;;;15.10;90.70;;;;;;5073985;28;20083;-49
2022/04/23 10:29:41;;;;;;;26.27;18.88;;;15.00;90.70;;;;;;5073108;28;20047;-48
2022/04/23 10:32:08;;;;;;;23.83;20.15;;;15.00;90.90;;;;;;5073906;28;20043;-50
2022/04/23 10:34:35;;;;;;;26.65;20.65;;;15.00;90.50;;;;;;5074049;28;20037;-49
2022/04/23 10:37:02;;;;;;;22.67;18.83;;;14.90;90.90;;;;;;5073089;28;20064;-46
2022/04/23 10:39:29;;;;;;;25.42;19.35;;;14.80;90.60;;;;;;5073955;28;20044;-45
2022/04/23 10:41:56;;;;;;;24.02;19.13;;;14.60;90.20;;;;;;5073901;28;20097;-49
2022/04/23 10:44:22;;;;;;;22.27;19.85;;;14.70;90.80;;;;;;5073864;28;20384;-49
2022/04/23 10:46:50;;;;;;;25.10;19.15;;;14.80;91.20;;;;;;5073582;28;20048;-52
2022/04/23 10:49:18;;;;;;;22.08;19.15;;;14.90;90.60;;;;;;5073656;28;20060;-53
2022/04/23 10:51:45;;;;;;;24.77;19.42;;;14.90;90.60;;;;;;5073496;28;20044;-49
2022/04/23 10:54:12;;;;;;;25.65;20.23;;;14.90;90.80;;;;;;5073544;28;20132;-48
2022/04/23 10:56:38;;;;;;;25.55;21.80;;;15.00;90.70;;;;;;5073642;28;20119;-47
2022/04/23 10:59:05;;;;;;;23.73;20.17;;;14.80;90.80;;;;;;5072698;28;20041;-44
2022/04/23 11:01:32;;;;;;;22.33;19.75;;;14.80;90.70;;;;;;5073343;28;20076;-53
2022/04/23 11:03:59;;;;;;;26.42;19.83;;;15.00;91.00;;;;;;5073393;28;20041;-51
2022/04/23 11:12:16;;;;;;;25.83;20.90;;;15.00;89.70;;;;;;5073403;28;20044;-50
2022/04/23 11:14:47;;;;;;;26.70;20.10;;;14.80;90.10;;;;;;5073482;28;20064;-49
2022/04/23 11:17:14;;;;;;;20.75;17.80;;;14.90;90.50;;;;;;5060988;28;20083;-54
2022/04/23 11:19:41;;;;;;;24.70;18.83;;;15.00;89.30;;;;;;5064769;28;20064;-52
2022/04/23 11:22:12;;;;;;;26.73;20.50;;;15.00;89.90;;;;;;5072216;28;20041;-53
2022/04/23 11:24:39;;;;;;;26.90;19.60;;;15.10;88.40;;;;;;5073104;28;20037;-52
2022/04/23 11:27:08;;;;;;;21.85;19.38;;;15.20;88.50;;;;;;5072877;28;20139;-52
2022/04/23 11:29:35;;;;;;;23.23;18.98;;;15.30;87.60;;;;;;5072114;28;20036;-48
2022/04/23 11:32:02;;;;;;;24.02;17.48;;;15.40;88.10;;;;;;5072844;28;20395;-54
2022/04/23 11:34:29;;;;;;;21.15;17.95;;;15.60;86.20;;;;;;5072328;28;20454;-52
2022/04/23 11:36:56;;;;;;;22.58;18.67;;;15.70;85.70;;;;;;5072836;28;20066;-50
2022/04/23 11:39:23;;;;;;;19.73;16.45;;;15.80;85.70;;;;;;5072725;28;20127;-49
2022/04/23 11:41:49;;;;;;;20.92;17.13;;;15.80;85.00;;;;;;5072687;28;20111;-49
2022/04/23 11:44:17;;;;;;;22.48;17.05;;;15.60;82.40;;;;;;5072806;28;20055;-48
2022/04/23 11:46:43;;;;;;;20.42;17.77;;;15.40;83.10;;;;;;5068828;28;20095;-53
2022/04/23 11:49:10;;;;;;;21.17;16.60;;;15.30;84.50;;;;;;5053695;28;20075;-52
2022/04/23 11:51:37;;;;;;;22.08;16.67;;;15.40;84.00;;;;;;5057495;28;20466;-51
2022/04/23 11:54:04;;;;;;;22.85;17.05;;;15.50;83.70;;;;;;5072675;28;20066;-53
2022/04/23 11:56:32;;;;;;;19.83;16.45;;;15.60;82.30;;;;;;5062214;28;20044;-52
2022/04/23 11:58:58;;;;;;;18.00;16.15;;;15.70;82.50;;;;;;5057371;28;20071;-53
2022/04/23 12:01:25;;;;;;;23.88;16.52;;;15.70;81.00;;;;;;5072555;28;20395;-52
2022/04/23 12:03:52;;;;;;;19.88;16.30;;;15.90;81.40;;;;;;5072506;28;20106;-49
2022/04/23 12:06:19;;;;;;;18.13;16.23;;;15.90;79.80;;;;;;5055729;28;20538;-50
2022/04/23 12:08:46;;;;;;;19.10;15.13;;;16.00;79.80;;;;;;5053279;28;20128;-52
2022/04/23 12:11:13;;;;;;;21.20;16.75;;;16.00;79.00;;;;;;5053252;28;20091;-51
2022/04/23 12:13:39;;;;;;;17.48;15.32;;;16.10;80.00;;;;;;5068650;28;20481;-50
2022/04/23 12:16:07;;;;;;;22.35;17.95;;;16.30;79.90;;;;;;5053173;28;20041;-48
2022/04/23 12:18:34;;;;;;;19.02;17.08;;;16.30;81.10;;;;;;5059161;28;20457;-52
2022/04/23 12:21:01;;;;;;;22.30;17.02;;;16.30;81.90;;;;;;5052975;28;20121;-52
2022/04/23 12:23:28;;;;;;;22.45;16.90;;;16.30;81.40;;;;;;5056465;28;20047;-55
2022/04/23 12:25:54;;;;;;;19.88;16.20;;;16.20;81.00;;;;;;5072259;28;20090;-55
2022/04/23 12:42:10;;;;;;;21.13;16.75;;;16.10;81.00;;;;;;5071492;28;20470;-52
2022/04/23 12:44:42;;;;;;;18.80;16.80;;;16.10;80.90;;;;;;5072416;28;20501;-51
2022/04/23 12:47:09;;;;;;;22.10;16.17;;;16.10;81.10;;;;;;5063433;28;20365;-48
2022/04/23 12:49:36;;;;;;;19.85;16.35;;;16.00;81.50;;;;;;5053242;28;20069;-53
2022/04/23 12:52:03;;;;;;;19.08;17.02;;;16.10;81.90;;;;;;5052499;28;20041;-54
2022/04/23 12:54:30;;;;;;;19.77;17.35;;;16.10;81.50;;;;;;5064285;28;20045;-50
2022/04/23 12:56:57;;;;;;;18.88;16.13;;;16.10;81.30;;;;;;5075614;28;20067;-50
2022/04/23 12:59:24;;;;;;;20.65;16.55;;;16.10;81.70;;;;;;5075772;28;20044;-52
2022/04/23 13:01:50;;;;;;;22.33;16.52;;;16.20;81.50;;;;;;5074965;28;20033;-49
2022/04/23 13:04:17;;;;;;;19.40;15.60;;;16.30;81.90;;;;;;5075455;28;20136;-49
2022/04/23 13:09:29;;;;;;;21.60;16.10;;;16.40;80.90;;;;;;5071722;28;20069;-50
2022/04/23 13:11:57;;;;;;;19.92;16.20;;;16.40;80.70;;;;;;5073259;28;20479;-49
2022/04/23 13:14:23;;;;;;;21.08;15.45;;;16.40;79.50;;;;;;5075367;28;20048;-51
2022/04/23 13:16:50;;;;;;;16.88;14.32;;;16.50;79.20;;;;;;5075308;28;20044;-47
2022/04/23 13:19:22;;;;;;;21.35;14.75;;;16.60;79.20;;;;;;5074846;28;20036;-54
2022/04/23 13:21:48;;;;;;;16.35;14.30;;;16.50;80.00;;;;;;5075347;28;20042;-53
2022/04/23 13:24:16;;;;;;;18.13;14.55;;;16.60;80.30;;;;;;5075361;28;20041;-53
2022/04/23 13:26:43;;;;;;;17.42;13.85;;;16.60;80.50;;;;;;5064140;28;20065;-52
2022/04/23 13:29:09;;;;;;;17.52;14.48;;;16.60;80.10;;;;;;5056040;28;20393;-48
2022/04/23 13:31:39;;;;;;;19.00;14.75;;;16.60;80.30;;;;;;5071727;28;20068;-51
2022/04/23 13:34:06;;;;;;;17.70;14.50;;;16.50;80.40;;;;;;5074597;28;20044;-49
2022/04/23 13:36:33;;;;;;;17.75;14.75;;;16.40;81.20;;;;;;5075251;28;20052;-53
2022/04/23 13:39:00;;;;;;;20.55;15.55;;;16.30;81.20;;;;;;5074379;28;20040;-54
2022/04/23 13:41:27;;;;;;;18.73;15.15;;;16.10;81.90;;;;;;5061842;28;20032;-51
2022/04/23 13:43:53;;;;;;;18.65;14.32;;;16.10;83.20;;;;;;5074915;28;20044;-55
2022/04/23 13:46:20;;;;;;;16.50;14.63;;;16.10;83.10;;;;;;5074349;28;20391;-49
2022/04/23 13:48:47;;;;;;;18.58;16.20;;;16.10;83.10;;;;;;5074856;28;20074;-54
2022/04/23 13:51:14;;;;;;;18.05;15.75;;;16.10;82.70;;;;;;5074201;28;20052;-49
2022/04/23 13:53:40;;;;;;;18.35;15.80;;;16.10;83.30;;;;;;5073596;28;20053;-48
2022/04/23 13:56:07;;;;;;;17.67;15.73;;;16.00;83.40;;;;;;5074849;28;20127;-47
2022/04/23 13:58:34;;;;;;;18.05;15.40;;;16.10;83.50;;;;;;5073885;28;20041;-51
2022/04/23 14:01:01;;;;;;;19.30;15.75;;;16.10;83.30;;;;;;5074603;28;20036;-49
2022/04/23 14:11:44;;;;;;;16.17;14.02;;;16.00;83.30;;;;;;5073928;28;20041;-49
2022/04/23 14:14:13;;;;;;;16.77;14.57;;;16.10;82.50;;;;;;5074338;28;20059;-49
2022/04/23 14:16:43;;;;;;;19.85;15.60;;;16.20;82.30;;;;;;5074312;28;20053;-52
2022/04/23 14:19:10;;;;;;;16.65;14.95;;;16.00;82.40;;;;;;5062907;28;20072;-54
2022/04/23 14:21:37;;;;;;;17.70;15.52;;;16.00;83.20;;;;;;5054859;28;20060;-54
2022/04/23 14:24:03;;;;;;;18.88;14.93;;;15.80;83.60;;;;;;5061060;28;20410;-53
2022/04/23 14:26:30;;;;;;;18.63;14.90;;;15.80;84.00;;;;;;5060124;28;20068;-52
2022/04/23 14:28:58;;;;;;;19.23;15.55;;;15.80;83.70;;;;;;5074144;28;20136;-50
2022/04/23 14:31:24;;;;;;;16.98;14.93;;;15.60;83.70;;;;;;5073466;28;20455;-52
2022/04/23 14:33:51;;;;;;;19.77;15.82;;;15.70;84.20;;;;;;5072804;28;20483;-51
2022/04/23 14:36:18;;;;;;;16.77;14.90;;;15.90;84.00;;;;;;5065939;28;20091;-53
2022/04/23 14:38:45;;;;;;;16.92;14.73;;;15.90;82.50;;;;;;5074085;28;20086;-49
2022/04/23 14:41:13;;;;;;;16.85;15.05;;;15.90;82.60;;;;;;5073231;28;20041;-50
2022/04/23 14:43:40;;;;;;;24.38;15.90;;;15.90;82.60;;;;;;5073986;28;20043;-55
2022/04/23 14:46:06;;;;;;;20.98;15.05;;;15.90;81.50;;;;;;5073876;28;20041;-53
2022/04/23 14:48:33;;;;;;;18.38;16.38;;;16.00;82.00;;;;;;5073184;28;20411;-55
2022/04/23 14:53:45;;;;;;;20.20;16.17;;;16.20;82.40;;;;;;5073621;28;20093;-53
2022/04/23 14:56:12;;;;;;;21.27;16.17;;;16.30;81.40;;;;;;5073255;28;20044;-51
2022/04/23 14:58:39;;;;;;;20.33;16.55;;;16.20;82.20;;;;;;5063791;28;20041;-51
2022/04/23 15:01:11;;;;;;;19.20;16.67;;;16.10;82.30;;;;;;5059228;28;20106;-54
2022/04/23 15:03:38;;;;;;;21.35;17.15;;;16.20;82.20;;;;;;5060520;28;20052;-49
2022/04/23 15:06:05;;;;;;;18.27;16.10;;;16.20;81.80;;;;;;5072722;28;20049;-49
2022/04/23 15:08:31;;;;;;;19.02;16.98;;;16.10;82.50;;;;;;5069708;28;20053;-53
2022/04/23 15:10:58;;;;;;;19.58;17.23;;;16.10;82.60;;;;;;5064362;28;20102;-51
2022/04/23 15:13:26;;;;;;;19.75;17.40;;;16.10;82.70;;;;;;5068042;28;20099;-51
2022/04/23 15:15:53;;;;;;;19.83;17.77;;;16.00;83.40;;;;;;5061340;28;20045;-57
2022/04/23 15:18:19;;;;;;;21.40;17.88;;;15.90;83.10;;;;;;5062469;28;20036;-53
2022/04/23 15:20:46;;;;;;;20.08;17.98;;;15.70;84.20;;;;;;5065105;28;20037;-51
2022/04/23 15:23:14;;;;;;;20.88;18.67;;;15.80;84.20;;;;;;5061215;28;20055;-52
2022/04/23 15:25:41;;;;;;;21.55;19.05;;;15.80;83.40;;;;;;5070094;28;20045;-52
2022/04/23 15:28:08;;;;;;;22.40;19.15;;;15.80;83.70;;;;;;5070064;28;20044;-56
2022/04/23 15:30:35;;;;;;;21.08;19.08;;;15.80;84.20;;;;;;5065314;28;20547;-49
2022/04/23 15:33:02;;;;;;;20.95;18.90;;;15.80;83.70;;;;;;5065749;28;20119;-54
2022/04/23 15:35:28;;;;;;;21.33;19.02;;;15.90;83.40;;;;;;5058290;28;20048;-52
2022/04/23 15:37:55;;;;;;;22.48;20.17;;;15.90;83.40;;;;;;5063453;28;20045;-47
2022/04/23 15:40:23;;;;;;;20.80;18.90;;;15.90;83.60;;;;;;5065165;28;20033;-52
2022/04/23 15:42:50;;;;;;;20.67;18.45;;;16.00;83.30;;;;;;5064739;28;20029;-53
2022/04/23 15:45:17;;;;;;;25.48;20.52;;;16.10;83.40;;;;;;5062351;28;20040;-53
2022/04/23 15:47:50;;;;;;;21.50;18.80;;;16.10;83.60;;;;;;5061009;28;20037;-54
2022/04/23 15:50:19;;;;;;;22.48;19.65;;;16.10;83.70;;;;;;5067921;28;20092;-54
2022/04/23 15:52:46;;;;;;;21.52;19.30;;;16.10;83.50;;;;;;5063355;28;20529;-52
2022/04/23 15:55:13;;;;;;;23.13;20.73;;;15.90;83.50;;;;;;5053819;28;20047;-55
2022/04/23 15:57:40;;;;;;;23.33;20.83;;;15.80;83.80;;;;;;5061870;28;20502;-53
2022/04/23 16:00:07;;;;;;;24.02;21.65;;;15.90;84.50;;;;;;5057351;28;20041;-52
2022/04/23 16:02:40;;;;;;;22.95;20.15;;;15.90;83.60;;;;;;5069456;28;20082;-54
2022/04/23 16:05:09;;;;;;;23.75;21.30;;;16.00;83.90;;;;;;5064612;28;20036;-49
2022/04/23 16:07:35;;;;;;;22.40;20.20;;;16.00;84.00;;;;;;5060980;28;20101;-54
2022/04/23 16:10:02;;;;;;;23.35;20.42;;;16.00;83.30;;;;;;5069019;28;20045;-52
2022/04/23 16:12:29;;;;;;;23.85;21.42;;;15.90;83.00;;;;;;5068051;28;20061;-50
2022/04/23 16:14:57;;;;;;;24.05;21.55;;;15.80;83.20;;;;;;5065370;28;20047;-49
2022/04/23 16:17:44;;;;;;;24.05;21.52;;;15.70;83.70;;;;;;5072522;28;20118;-51
2022/04/23 16:20:11;;;;;;;24.30;21.92;;;15.60;83.90;;;;;;5072951;28;20062;-52
2022/04/23 16:22:38;;;;;;;24.95;22.35;;;15.40;84.30;;;;;;5072221;28;20039;-52
2022/04/23 16:25:04;;;;;;;25.35;22.00;;;15.30;84.70;;;;;;5072261;28;20069;-52
2022/04/23 16:27:31;;;;;;;26.33;23.67;;;15.30;85.00;;;;;;5070580;28;20028;-52
2022/04/23 16:29:58;;;;;;;24.73;22.25;;;15.50;85.10;;;;;;5075994;28;20077;-50
2022/04/23 16:32:25;;;;;;;23.50;20.95;;;15.50;85.00;;;;;;5076283;28;20502;-55
2022/04/23 16:34:51;;;;;;;23.45;21.05;;;15.60;84.70;;;;;;5076115;28;20044;-54
2022/04/23 16:48:20;;;;;;;25.80;20.83;;;15.50;85.60;;;;;;5074614;28;20036;-50
2022/04/23 16:50:47;;;;;;;24.98;21.83;;;15.40;85.30;;;;;;5076136;28;20032;-48
2022/04/23 16:53:14;;;;;;;23.98;21.48;;;15.40;85.40;;;;;;5075751;28;20044;-50
2022/04/23 16:55:41;;;;;;;24.52;21.52;;;15.40;85.70;;;;;;5075713;28;20036;-51
2022/04/23 16:58:07;;;;;;;23.35;21.05;;;15.30;85.70;;;;;;5075233;28;20055;-52
2022/04/23 17:00:34;;;;;;;22.90;20.48;;;15.40;85.90;;;;;;5075965;28;20040;-49
2022/04/23 17:03:01;;;;;;;25.38;20.90;;;15.50;85.80;;;;;;5074282;28;20033;-51
2022/04/23 17:05:28;;;;;;;24.27;21.70;;;15.50;85.70;;;;;;5076049;28;20032;-52
2022/04/23 17:07:55;;;;;;;23.80;20.25;;;15.60;85.70;;;;;;5075875;28;20032;-53
2022/04/23 17:10:21;;;;;;;23.40;20.92;;;15.60;85.70;;;;;;5080376;28;20048;-51
2022/04/23 17:12:48;;;;;;;24.10;20.70;;;15.50;85.30;;;;;;5074916;28;20128;-52
2022/04/23 17:15:15;;;;;;;23.50;20.40;;;15.50;85.60;;;;;;5074677;28;20483;-49
2022/04/23 17:17:42;;;;;;;21.95;19.65;;;15.50;85.60;;;;;;5073198;28;20114;-54
2022/04/23 17:20:09;;;;;;;22.63;20.25;;;15.60;85.40;;;;;;5072249;28;20050;-53
2022/04/23 17:22:35;;;;;;;22.80;20.35;;;15.60;85.60;;;;;;5074176;28;20072;-56
2022/04/23 17:25:02;;;;;;;24.75;20.02;;;15.60;84.80;;;;;;5074509;28;20098;-53
2022/04/23 17:27:29;;;;;;;22.15;19.77;;;15.70;85.00;;;;;;5075302;28;20040;-52
2022/04/23 17:29:56;;;;;;;26.05;21.27;;;15.70;84.80;;;;;;5075217;28;20068;-49
2022/04/23 17:32:22;;;;;;;22.08;19.23;;;15.70;84.30;;;;;;5075037;28;20090;-51
2022/04/23 17:34:49;;;;;;;22.52;19.35;;;15.70;84.30;;;;;;5074829;28;20045;-57
2022/04/23 17:37:16;;;;;;;24.20;19.35;;;15.70;84.40;;;;;;5071422;28;20037;-54
2022/04/23 17:39:43;;;;;;;21.40;18.63;;;15.70;84.20;;;;;;5072246;28;20041;-53
2022/04/23 17:42:14;;;;;;;23.45;19.52;;;15.60;84.00;;;;;;5076055;28;20045;-50
2022/04/23 17:44:41;;;;;;;22.40;19.00;;;15.50;84.60;;;;;;5074829;28;20519;-53
2022/04/23 17:47:08;;;;;;;21.15;18.73;;;15.50;84.90;;;;;;5074853;28;20040;-52
2022/04/23 17:49:35;;;;;;;24.40;18.23;;;15.50;85.20;;;;;;5074355;28;20119;-53
2022/04/23 17:52:02;;;;;;;20.52;18.33;;;15.60;84.80;;;;;;5073923;28;20423;-53
2022/04/23 17:54:29;;;;;;;24.33;20.30;;;15.60;84.50;;;;;;5074644;28;20079;-55
2022/04/23 17:56:56;;;;;;;26.83;19.10;;;15.50;84.80;;;;;;5073331;28;20044;-56
2022/04/23 17:59:23;;;;;;;24.40;18.45;;;15.50;85.20;;;;;;5074833;28;20029;-54
2022/04/23 18:07:24;;;;;;;21.23;17.13;;;15.50;85.10;;;;;;5073561;28;20526;-54
2022/04/23 18:09:52;;;;;;;22.65;18.08;;;15.50;85.10;;;;;;5062652;28;20052;-53
2022/04/23 18:12:19;;;;;;;20.73;17.20;;;15.50;85.40;;;;;;5074220;28;20552;-52
2022/04/23 18:14:45;;;;;;;21.88;17.50;;;15.50;85.60;;;;;;5074614;28;20047;-52
2022/04/23 18:17:17;;;;;;;26.23;17.38;;;15.50;85.40;;;;;;5072853;28;20090;-56
2022/04/23 18:19:44;;;;;;;27.27;18.38;;;15.50;85.20;;;;;;5073791;28;20033;-54
2022/04/23 18:22:10;;;;;;;24.88;18.02;;;15.50;85.20;;;;;;5072728;28;20036;-54
2022/04/23 18:24:38;;;;;;;23.05;18.08;;;15.40;85.30;;;;;;5073887;28;20032;-54
2022/04/23 18:27:05;;;;;;;24.67;17.25;;;15.40;85.90;;;;;;5075126;28;20102;-55
2022/04/23 18:29:37;;;;;;;23.75;16.83;;;15.40;86.20;;;;;;5074756;28;20044;-54
2022/04/23 18:32:04;;;;;;;24.52;17.33;;;15.40;86.00;;;;;;5072723;28;20044;-51
2022/04/23 18:34:31;;;;;;;21.88;17.33;;;15.30;86.30;;;;;;5074741;28;20091;-51
2022/04/23 18:36:58;;;;;;;26.10;17.02;;;15.20;86.80;;;;;;5073905;28;20148;-54
2022/04/23 18:39:28;;;;;;;28.48;17.67;;;15.10;86.80;;;;;;5074250;28;20106;-54
2022/04/23 18:41:55;;;;;;;22.92;17.05;;;15.00;87.00;;;;;;5074650;28;20047;-53
2022/04/23 18:44:21;;;;;;;26.45;16.52;;;15.00;87.40;;;;;;5074447;28;20041;-54
2022/04/23 18:46:48;;;;;;;25.77;16.92;;;14.90;87.60;;;;;;5074251;28;20112;-57
2022/04/23 18:49:15;;;;;;;25.83;16.30;;;14.80;87.50;;;;;;5074679;28;20044;-51
2022/04/23 18:51:42;;;;;;;24.05;16.33;;;14.80;87.60;;;;;;5071975;28;20040;-54
2022/04/23 18:54:09;;;;;;;22.85;16.70;;;14.80;88.00;;;;;;5074874;28;20078;-51
2022/04/23 18:56:35;;;;;;;22.83;15.93;;;14.70;88.20;;;;;;5074570;28;20094;-50
2022/04/23 18:59:02;;;;;;;22.02;15.48;;;14.70;88.60;;;;;;5074001;28;20094;-53
2022/04/23 19:01:30;;;;;;;26.33;16.25;;;14.60;89.00;;;;;;5074048;28;20040;-54
2022/04/23 19:03:58;;;;;;;24.60;16.33;;;14.60;88.90;;;;;;5074462;28;20040;-51
2022/04/23 19:06:25;;;;;;;21.45;15.35;;;14.60;89.10;;;;;;5083318;28;20157;-50
2022/04/23 19:08:51;;;;;;;29.33;15.60;;;14.50;89.20;;;;;;5077941;28;20383;-52
2022/04/23 19:11:18;;;;;;;25.77;16.02;;;14.50;89.20;;;;;;5075793;28;20517;-51
2022/04/23 19:13:47;;;;;;;21.75;16.08;;;14.40;89.30;;;;;;5077392;28;20535;-52
2022/04/23 19:16:14;;;;;;;27.92;16.08;;;14.40;89.60;;;;;;5086571;28;20029;-52
2022/04/23 19:18:41;;;;;;;27.88;15.95;;;14.40;89.60;;;;;;5074149;28;20059;-55
2022/04/23 19:29:24;;;;;;;26.30;15.65;;;14.30;89.50;;;;;;5064754;28;20044;-52
2022/04/23 19:31:51;;;;;;;27.88;15.27;;;14.30;89.60;;;;;;5081137;28;20372;-55
2022/04/23 19:34:19;;;;;;;24.23;15.88;;;14.30;89.40;;;;;;5074546;28;20036;-55
2022/04/23 19:36:45;;;;;;;22.45;15.32;;;14.30;89.60;;;;;;5077494;28;20036;-54
2022/04/23 19:39:12;;;;;;;28.70;15.98;;;14.20;89.20;;;;;;5083413;28;20046;-55
2022/04/23 19:41:39;;;;;;;27.35;15.80;;;14.10;89.60;;;;;;5080060;28;20082;-50
2022/04/23 19:44:05;;;;;;;22.38;15.30;;;14.10;89.80;;;;;;5080041;28;20036;-53
2022/04/23 19:46:33;;;;;;;25.63;14.43;;;14.00;89.80;;;;;;5073399;28;20051;-49
2022/04/23 19:48:59;;;;;;;25.48;15.25;;;13.90;89.90;;;;;;5090675;28;20044;-53
2022/04/23 19:51:32;;;;;;;23.25;14.07;;;13.90;90.00;;;;;;5076284;28;20083;-52
2022/04/23 19:53:58;;;;;;;26.48;14.30;;;13.90;90.00;;;;;;5070003;28;20070;-52
2022/04/23 19:56:25;;;;;;;20.80;14.27;;;13.90;90.10;;;;;;5082919;28;20032;-51
2022/04/23 19:58:52;;;;;;;24.05;15.18;;;13.90;89.90;;;;;;5076774;28;20498;-52
2022/04/23 20:01:19;;;;;;;23.88;14.13;;;13.90;90.00;;;;;;5084660;28;20037;-55
2022/04/23 20:03:45;;;;;;;24.05;14.68;;;14.00;90.00;;;;;;5074285;28;20033;-50
2022/04/23 20:06:13;;;;;;;26.92;14.52;;;13.90;90.00;;;;;;5074895;28;20116;-54
2022/04/23 20:08:39;;;;;;;21.33;13.95;;;13.90;90.10;;;;;;5076118;28;20483;-50
2022/04/23 20:11:06;;;;;;;27.27;13.93;;;13.90;89.90;;;;;;5080662;28;20053;-53
2022/04/23 20:13:33;;;;;;;23.65;14.07;;;13.90;89.80;;;;;;5074946;28;20068;-55
2022/04/23 20:16:00;;;;;;;19.60;13.57;;;13.80;90.00;;;;;;5073099;28;20040;-53
2022/04/23 20:18:27;;;;;;;23.98;14.20;;;13.80;90.00;;;;;;5074308;28;20475;-56
2022/04/23 20:20:53;;;;;;;25.50;13.95;;;13.80;90.00;;;;;;5074081;28;20483;-52
2022/04/23 20:23:20;;;;;;;22.42;14.68;;;13.70;90.30;;;;;;5089769;28;20432;-50
2022/04/23 20:25:47;;;;;;;26.05;13.88;;;13.60;90.30;;;;;;5089649;28;20444;-54
2022/04/23 20:28:13;;;;;;;26.90;13.73;;;13.60;90.40;;;;;;5074146;28;20071;-50
2022/04/23 20:30:41;;;;;;;25.55;14.13;;;13.50;90.50;;;;;;5088692;28;20044;-50
2022/04/23 20:33:08;;;;;;;29.38;14.45;;;13.50;90.60;;;;;;5078886;28;20036;-52
2022/04/23 20:38:23;;;;;;;23.05;13.38;;;13.40;90.50;;;;;;5084038;28;20094;-53
2022/04/23 20:40:50;;;;;;;22.25;12.90;;;13.40;90.80;;;;;;5073262;28;20028;-54
2022/04/23 20:43:17;;;;;;;26.25;13.68;;;13.40;90.60;;;;;;5074063;28;20372;-50
2022/04/23 20:45:44;;;;;;;23.42;12.55;;;13.40;90.60;;;;;;5083885;28;20479;-49
2022/04/23 20:48:17;;;;;;;24.25;13.48;;;13.30;90.60;;;;;;5073394;28;20041;-52
2022/04/23 20:50:46;;;;;;;23.88;13.23;;;13.30;90.70;;;;;;5072283;28;20070;-51
2022/04/23 20:53:19;;;;;;;23.25;12.35;;;13.30;90.70;;;;;;5084812;28;20044;-51
2022/04/23 20:55:49;;;;;;;25.63;13.38;;;13.30;90.70;;;;;;5072988;28;20054;-49
2022/04/23 20:58:15;;;;;;;22.05;12.65;;;13.20;90.70;;;;;;5076847;28;20047;-50
2022/04/23 21:00:42;;;;;;;23.63;12.32;;;13.20;90.90;;;;;;5059355;28;20399;-55
2022/04/23 21:03:10;;;;;;;23.63;12.63;;;13.10;90.80;;;;;;5056830;28;20424;-56
2022/04/23 21:05:37;;;;;;;19.17;11.57;;;13.10;90.90;;;;;;5065008;28;20440;-49
2022/04/23 21:08:05;;;;;;;24.95;12.07;;;13.10;90.90;;;;;;5058250;28;20511;-54
2022/04/23 21:10:31;;;;;;;25.15;12.55;;;13.10;90.80;;;;;;5066597;28;20411;-55
2022/04/23 21:12:58;;;;;;;23.27;12.65;;;13.10;90.80;;;;;;5062994;28;20045;-49
2022/04/23 21:15:25;;;;;;;24.50;12.68;;;13.10;90.80;;;;;;5060659;28;20036;-51
2022/04/23 21:17:52;;;;;;;23.02;11.68;;;13.10;90.80;;;;;;5072605;28;20043;-51
2022/04/23 21:20:18;;;;;;;25.30;12.82;;;13.10;90.90;;;;;;5064348;28;20041;-50
2022/04/23 21:22:45;;;;;;;22.02;11.85;;;13.10;90.90;;;;;;5076213;28;20053;-51
2022/04/23 21:25:12;;;;;;;20.83;11.85;;;13.10;90.90;;;;;;5068695;28;20033;-50
2022/04/23 21:27:39;;;;;;;20.30;12.20;;;13.00;90.90;;;;;;5062886;28;20067;-51
2022/04/23 21:30:05;;;;;;;20.17;11.35;;;13.10;90.90;;;;;;5059616;28;20052;-59
2022/04/23 21:32:32;;;;;;;25.65;11.82;;;13.10;90.90;;;;;;5064717;28;20044;-56
2022/04/23 21:34:59;;;;;;;25.67;12.52;;;13.10;91.20;;;;;;5056975;28;20056;-56
2022/04/23 21:37:25;;;;;;;22.98;11.98;;;13.00;91.00;;;;;;5064237;28;20052;-55
2022/04/23 21:39:52;;;;;;;21.83;12.23;;;13.00;91.00;;;;;;5094611;28;20085;-54
2022/04/23 21:45:06;;;;;;;21.17;11.73;;;13.10;91.10;;;;;;5075154;28;20492;-54
2022/04/23 21:47:40;;;;;;;20.92;12.52;;;13.00;91.10;;;;;;5059392;28;20056;-53
2022/04/23 21:50:07;;;;;;;24.02;12.20;;;13.00;91.20;;;;;;5066530;28;20040;-50